Latest Weather Observations for Oenpelli Airport

IDD60801

Issued at 8:31 am CST Monday 20 February 2017 (issued every 30 minutes, with the page automatically refreshed every 10 minutes)

About weather observations | Map of weather stations | Latest weather observations for NT | Other Formats
Station Details ID: 014310 Name: OENPELLI AIRPORT Lat: -12.33 Lon: 133.01 Height: 7.5 m
Data from the previous 72 hours. | See also: Recent months at Oenpelli Airport
Date/Time
CST
Temp
°C
App
Temp
°C
Dew
Point
°C
Rel
Hum
%
Delta-T
°C
Wind Press
QNH
hPa
Press
MSL
hPa
Rain since
9am
mm
Dir  Spd
km/h
Gust
km/h
Spd
kts
Gust
kts
20/08:30am 26.6 32.0 25.2 92 1.0 SW 6 11 3 6 1009.2 1009.1 16.2
20/08:00am 25.3 30.8 25.3 100 0.0 WSW 6 9 3 5 1008.7 1008.6 16.2
20/07:30am 25.1 30.9 25.1 100 0.0 SW 4 6 2 3 1007.9 1007.8 16.2
20/07:00am 24.6 30.8 24.6 100 0.0 CALM 0 0 0 0 1007.3 1007.2 16.2
20/06:30am 24.4 30.5 24.4 100 0.0 CALM 0 0 0 0 1007.0 1006.9 16.2
20/06:00am 24.3 30.3 24.3 100 0.0 CALM 0 0 0 0 1007.3 1007.2 16.2
20/05:30am 24.2 30.2 24.2 100 0.0 CALM 0 0 0 0 1007.3 1007.2 16.2
20/05:00am 24.4 30.5 24.4 100 0.0 CALM 0 0 0 0 1007.4 1007.3 16.2
20/04:30am 24.3 30.3 24.3 100 0.0 CALM 0 0 0 0 1007.3 1007.2 16.2
20/04:00am 24.5 30.6 24.5 100 0.0 CALM 0 0 0 0 1007.0 1006.9 16.2
20/03:30am 24.6 30.8 24.6 100 0.0 CALM 0 2 0 1 1007.0 1006.9 16.2
20/03:00am 24.5 29.9 24.5 100 0.0 SSW 4 6 2 3 1006.9 1006.8 16.2
20/02:30am 24.5 29.9 24.5 100 0.0 SSW 4 6 2 3 1006.9 1006.8 16.2
20/02:00am 24.6 30.1 24.6 100 0.0 SSW 4 7 2 4 1007.1 1007.0 16.2
20/01:30am 24.7 30.2 24.7 100 0.0 SSW 4 7 2 4 1007.6 1007.5 16.2
20/01:00am 24.7 29.8 24.7 100 0.0 S 6 11 3 6 1007.7 1007.6 16.2
20/12:30am 24.7 30.2 24.7 100 0.0 SSW 4 7 2 4 1008.2 1008.1 16.2
20/12:00am 24.7 31.0 24.7 100 0.0 CALM 0 2 0 1 1008.4 1008.3 16.2
 
Date/Time
CST
Temp
°C
App
Temp
°C
Dew
Point
°C
Rel
Hum
%
Delta-T
°C
Wind Press
QNH
hPa
Press
MSL
hPa
Rain since
9am
mm
Dir  Spd
km/h
Gust
km/h
Spd
kts
Gust
kts
19/11:30pm 24.6 30.1 24.6 100 0.0 S 4 7 2 4 1007.8 1007.7 16.2
19/11:00pm 24.4 30.1 24.4 100 0.0 S 2 6 1 3 1007.7 1007.6 16.2
19/10:30pm 24.3 29.9 24.3 100 0.0 S 2 6 1 3 1007.8 1007.7 16.2
19/10:00pm 24.3 29.2 24.3 100 0.0 SSW 6 9 3 5 1008.0 1007.9 16.0
19/09:30pm 24.4 29.6 24.2 99 0.1 S 4 7 2 4 1008.2 1008.1 16.0
19/09:00pm 24.6 28.4 24.1 97 0.3 S 11 22 6 12 1008.2 1008.1 14.0
19/08:35pm 25.4 25.4 23.1 87 1.6 SE 28 46 15 25 1007.7 1007.6 11.8
19/08:30pm 26.7 28.4 24.0 85 1.9 SE 22 46 12 25 1007.6 1007.5 11.8
19/08:00pm 26.5 33.3 25.5 94 0.7 CALM 0 0 0 0 1006.4 1006.3 11.8
19/07:30pm 26.6 33.2 25.2 92 1.0 CALM 0 0 0 0 1006.1 1006.0 11.8
19/07:00pm 27.1 33.1 25.5 91 1.1 E 4 11 2 6 1005.3 1005.2 11.8
19/06:30pm 27.0 32.8 26.1 95 0.6 E 7 11 4 6 1005.0 1004.9 11.8
19/06:00pm 27.3 34.1 26.2 94 0.8 SSE 2 6 1 3 1004.7 1004.6 11.6
19/05:30pm 27.2 33.5 26.0 93 0.9 S 4 7 2 4 1004.3 1004.2 11.6
19/05:00pm 27.1 33.6 26.8 98 0.2 SW 6 13 3 7 1004.3 1004.2 11.6
19/04:30pm 25.6 31.7 25.6 100 0.0 E 4 6 2 3 1004.5 1004.4 11.6
19/04:00pm 24.9 26.5 23.3 91 1.1 S 20 41 11 22 1005.1 1005.0 8.4
19/03:30pm 29.7 32.9 25.9 80 2.7 W 20 37 11 20 1004.5 1004.4 3.0
19/03:00pm 29.0 32.4 25.8 83 2.3 W 19 30 10 16 1004.9 1004.8 3.0
19/02:30pm 28.4 35.0 27.2 93 0.9 W 7 17 4 9 1005.3 1005.2 3.0
19/02:00pm 27.9 31.1 25.5 87 1.7 WSW 19 32 10 17 1005.6 1005.5 0.6
19/01:30pm 29.4 33.8 25.6 80 2.7 WSW 13 30 7 16 1006.1 1006.0 0.6
19/01:00pm 28.7 34.2 26.1 86 1.8 SW 9 19 5 10 1006.5 1006.4 0.6
19/12:30pm 28.7 32.7 25.1 81 2.5 SW 13 20 7 11 1007.1 1007.0 0.2
19/12:00pm 28.3 33.1 24.5 80 2.6 WSW 7 11 4 6 1007.9 1007.8 0.2
19/11:30am 27.6 31.7 24.0 81 2.5 SW 9 17 5 9 1008.6 1008.5 0.2
19/11:00am 27.5 32.0 23.9 81 2.5 SSW 7 15 4 8 1009.0 1008.9 0.2
19/10:30am 27.2 31.7 23.7 81 2.4 SW 6 9 3 5 1009.2 1009.1 0.2
19/10:00am 27.1 31.3 23.1 79 2.7 SSW 6 13 3 7 1009.4 1009.3 0.2
19/09:30am 26.6 30.9 23.3 82 2.3 SW 6 7 3 4 1009.3 1009.2 0.2
19/09:00am 25.8 30.5 23.3 86 1.7 SSW 4 6 2 3 1009.2 1009.1 28.2
19/08:30am 25.1 29.7 23.2 89 1.3 SSW 4 9 2 5 1008.7 1008.6 28.2
19/08:00am 24.6 29.2 23.2 92 0.9 SSW 4 9 2 5 1008.1 1008.0 28.2
19/07:30am 24.3 27.7 23.4 95 0.6 SSW 11 19 6 10 1007.6 1007.5 28.2
19/07:00am 24.3 27.2 23.8 97 0.3 SW 15 26 8 14 1007.1 1007.0 28.2
19/06:30am 24.3 29.0 24.3 100 0.0 SW 7 13 4 7 1007.2 1007.1 28.2
19/06:00am 24.1 28.3 24.1 100 0.0 W 9 15 5 8 1006.8 1006.7 28.2
19/05:30am 23.9 28.4 23.9 100 0.0 WSW 7 11 4 6 1006.6 1006.5 28.2
19/05:00am 23.9 28.9 23.9 100 0.0 WSW 4 7 2 4 1006.8 1006.7 28.2
19/04:30am 23.8 28.8 23.8 100 0.0 WSW 4 7 2 4 1006.8 1006.7 27.8
19/04:00am 23.6 27.9 23.6 100 0.0 W 7 13 4 7 1007.0 1006.9 27.2
19/03:30am 23.6 28.1 23.6 100 0.0 WSW 6 13 3 7 1007.5 1007.4 25.8
19/03:00am 23.5 27.0 23.5 100 0.0 W 11 19 6 10 1007.8 1007.7 23.6
19/02:30am 23.8 28.0 23.5 98 0.2 W 7 15 4 8 1007.8 1007.7 21.6
19/02:00am 23.9 27.7 23.4 97 0.3 W 9 13 5 7 1008.3 1008.2 20.8
19/01:30am 24.1 28.5 23.8 98 0.2 SW 7 13 4 7 1008.1 1008.0 20.8
19/01:00am 24.1 28.8 23.4 96 0.5 SSW 4 7 2 4 1008.9 1008.8 20.8
19/12:30am 24.2 25.8 23.2 94 0.7 SE 20 37 11 20 1008.9 1008.8 20.8
19/12:08am 24.7 27.7 24.7 100 0.0 SSE 17 43 9 23 1010.1 1010.0 18.0
19/12:00am 25.2 31.0 25.2 100 0.0 SW 4 9 2 5 1009.7 1009.6 15.2
 
Date/Time
CST
Temp
°C
App
Temp
°C
Dew
Point
°C
Rel
Hum
%
Delta-T
°C
Wind Press
QNH
hPa
Press
MSL
hPa
Rain since
9am
mm
Dir  Spd
km/h
Gust
km/h
Spd
kts
Gust
kts
18/11:30pm 25.8 32.4 25.8 100 0.0 WSW 2 6 1 3 1009.3 1009.2 15.2
18/11:00pm 25.1 31.2 25.1 100 0.0 WSW 2 6 1 3 1009.1 1009.0 15.0
18/10:30pm 24.7 30.6 24.7 100 0.0 WSW 2 6 1 3 1008.6 1008.5 14.6
18/10:00pm 24.3 30.2 24.1 99 0.1 CALM 0 2 0 1 1008.1 1008.0 14.2
18/09:30pm 24.4 28.9 23.9 97 0.3 NW 7 15 4 8 1008.2 1008.1 14.2
18/09:00pm 23.6 28.1 23.6 100 0.0 N 6 9 3 5 1007.9 1007.8 14.2
18/08:30pm 22.9 26.1 22.4 97 0.3 E 9 15 5 8 1009.0 1008.9 13.8
18/08:00pm 23.2 22.0 21.6 91 1.1 SSW 30 52 16 28 1009.7 1009.6 1.8
18/07:55pm 23.9 22.5 21.2 85 1.8 S 30 52 16 28 1009.3 1009.2 0.6
18/07:51pm 25.4 25.3 21.5 79 2.6 SSW 24 44 13 24 1008.9 1008.8 0.2
18/07:30pm 29.3 33.5 25.9 82 2.4 W 15 28 8 15 1006.9 1006.8 0.2
18/07:00pm 29.4 33.3 26.0 82 2.4 WNW 17 28 9 15 1005.8 1005.7 0.2
18/06:30pm 29.8 33.8 26.2 81 2.6 WNW 17 28 9 15 1006.1 1006.0 0.2
18/06:00pm 29.9 34.6 26.7 83 2.3 WNW 15 24 8 13 1005.8 1005.7 0.2
18/05:30pm 30.4 33.8 25.9 77 3.2 WNW 19 28 10 15 1005.8 1005.7 0.2
18/05:00pm 31.1 34.9 26.4 76 3.4 WNW 19 28 10 15 1005.6 1005.5 0.2
18/04:30pm 32.0 36.1 26.3 72 4.1 WNW 17 26 9 14 1006.0 1005.9 0.2
18/04:00pm 31.6 35.6 26.2 73 3.9 WNW 17 24 9 13 1006.1 1006.0 0.2
18/03:30pm 32.3 36.6 26.6 72 4.1 WNW 17 26 9 14 1006.3 1006.2 0.2
18/03:00pm 32.8 35.8 24.6 62 5.8 W 17 24 9 13 1006.6 1006.5 0.2
18/02:30pm 32.8 36.6 24.0 60 6.2 W 11 20 6 11 1007.0 1006.9 0.2
18/02:00pm 32.6 36.3 24.6 62 5.6 WSW 13 20 7 11 1007.3 1007.2 0.2
18/01:30pm 32.1 35.7 24.4 63 5.4 WSW 13 20 7 11 1007.7 1007.6 0.2
18/01:00pm 32.5 37.1 24.8 64 5.4 WSW 9 15 5 8 1008.0 1007.9 0.2
18/12:30pm 31.9 36.0 25.2 67 4.7 WSW 13 20 7 11 1008.6 1008.5 0.2
18/12:00pm 30.8 34.6 24.7 70 4.3 W 13 19 7 10 1009.0 1008.9 0.2
18/11:30am 31.0 34.4 24.1 66 4.8 WSW 13 19 7 10 1009.3 1009.2 0.2
18/11:00am 31.2 35.6 25.1 70 4.3 SW 11 19 6 10 1009.7 1009.6 0.2
18/10:30am 30.4 34.5 24.5 70 4.1 SW 11 19 6 10 1010.0 1009.9 0.2
18/10:00am 29.8 33.7 24.9 75 3.4 SW 13 22 7 12 1010.0 1009.9 0.2
18/09:30am 29.2 34.1 25.2 79 2.8 SW 9 17 5 9 1010.2 1010.1 0.2
18/09:00am 28.6 33.6 25.4 83 2.3 SW 9 17 5 9 1010.4 1010.3 49.4
18/08:30am 27.4 31.9 25.2 88 1.5 SW 11 17 6 9 1010.1 1010.0 49.4
18/08:00am 27.1 32.2 25.5 91 1.1 SW 9 20 5 11 1010.0 1009.9 49.4
18/07:30am 26.1 31.1 25.4 96 0.5 SW 9 13 5 7 1009.8 1009.7 49.4
18/07:00am 25.5 30.6 25.0 97 0.3 SSW 7 11 4 6 1009.8 1009.7 49.4
18/06:30am 25.1 29.6 24.6 97 0.3 SSW 9 13 5 7 1009.4 1009.3 49.4
18/06:00am 24.8 29.6 24.1 96 0.5 SSW 6 9 3 5 1009.1 1009.0 49.4
18/05:30am 24.7 29.1 23.8 95 0.6 SSW 7 9 4 5 1008.7 1008.6 49.4
18/05:00am 24.4 28.8 23.4 94 0.7 SSW 6 9 3 5 1008.6 1008.5 49.4
18/04:30am 24.3 29.0 23.3 94 0.7 SSW 4 6 2 3 1008.6 1008.5 49.4
18/04:00am 24.2 29.3 23.3 95 0.6 SSW 2 6 1 3 1008.4 1008.3 49.4
18/03:30am 23.8 28.6 22.8 94 0.7 SSW 2 4 1 2 1008.5 1008.4 49.4
18/03:00am 23.7 27.9 23.2 97 0.3 SSW 6 7 3 4 1008.6 1008.5 49.4
18/02:30am 23.6 28.9 23.1 97 0.3 CALM 0 2 0 1 1008.8 1008.7 49.4
18/02:00am 23.5 27.5 22.8 96 0.5 SW 6 7 3 4 1009.1 1009.0 49.4
18/01:30am 23.5 27.4 23.0 97 0.3 SW 7 13 4 7 1009.7 1009.6 49.4
18/01:00am 23.4 27.6 23.4 100 0.0 S 7 13 4 7 1010.2 1010.1 49.4
18/12:30am 23.3 27.4 23.3 100 0.0 S 7 13 4 7 1010.6 1010.5 49.2
18/12:00am 23.2 26.5 23.2 100 0.0 SSW 11 20 6 11 1009.9 1009.8 49.2
 
Date/Time
CST
Temp
°C
App
Temp
°C
Dew
Point
°C
Rel
Hum
%
Delta-T
°C
Wind Press
QNH
hPa
Press
MSL
hPa
Rain since
9am
mm
Dir  Spd
km/h
Gust
km/h
Spd
kts
Gust
kts
17/11:30pm 22.9 26.8 22.9 100 0.0 SSW 7 17 4 9 1010.5 1010.4 49.2
17/11:00pm 23.0 25.4 23.0 100 0.0 SSW 15 26 8 14 1011.3 1011.2 44.4
17/10:30pm 23.7 24.5 22.5 93 0.8 S 22 37 12 20 1010.6 1010.5 29.4
17/10:00pm 27.8 34.6 26.2 91 1.1 WSW 2 6 1 3 1009.9 1009.8 21.0
17/09:30pm 27.8 34.5 26.0 90 1.3 WSW 2 4 1 2 1009.5 1009.4 21.0
17/09:00pm 27.7 34.2 25.7 89 1.4 WSW 2 4 1 2 1009.1 1009.0 21.0
17/08:30pm 28.0 34.3 26.0 89 1.4 WSW 4 9 2 5 1009.0 1008.9 21.0
17/08:00pm 28.1 34.1 26.3 90 1.3 W 7 9 4 5 1008.2 1008.1 21.0
17/07:30pm 28.4 33.9 26.2 88 1.6 W 9 15 5 8 1008.0 1007.9 21.0
17/07:00pm 28.4 33.5 26.2 88 1.6 WNW 11 20 6 11 1007.7 1007.6 21.0
17/06:30pm 27.4 34.2 26.7 96 0.5 NW 4 11 2 6 1007.6 1007.5 21.0
17/06:00pm 26.7 33.7 25.8 95 0.6 CALM 0 0 0 0 1007.8 1007.7 21.0
17/05:30pm 26.0 32.1 25.7 98 0.2 NW 4 6 2 3 1007.7 1007.6 21.0
17/05:00pm 25.2 30.6 24.5 96 0.5 WNW 4 9 2 5 1007.5 1007.4 21.0
17/04:30pm 26.1 27.8 24.0 88 1.4 W 22 41 12 22 1008.7 1008.6 17.8
17/04:00pm 28.2 33.4 26.8 92 1.0 NNW 13 26 7 14 1007.2 1007.1 6.8
17/03:30pm 30.4 33.9 25.5 75 3.5 NW 17 26 9 14 1007.4 1007.3 0.0
17/03:00pm 31.3 35.5 25.9 73 3.9 WNW 15 22 8 12 1007.9 1007.8 0.0
17/02:30pm 31.0 36.4 26.0 74 3.6 NNW 9 17 5 9 1008.2 1008.1 0.0
17/02:00pm 32.4 37.2 25.7 68 4.8 WNW 11 20 6 11 1008.5 1008.4 0.0
17/01:30pm 32.7 37.3 24.7 62 5.6 SW 9 15 5 8 1009.1 1009.0 0.0
17/01:00pm 32.5 37.3 25.1 65 5.2 SW 9 19 5 10 1009.5 1009.4 0.0
17/12:30pm 32.2 36.9 25.0 65 5.1 SW 9 17 5 9 1010.1 1010.0 0.0
17/12:00pm 31.1 36.7 25.4 71 4.0 SSW 6 13 3 7 1010.5 1010.4 0.0
17/11:30am 30.2 35.9 25.0 73 3.7 S 4 9 2 5 1010.9 1010.8 0.0
17/11:00am 29.5 34.6 25.0 77 3.2 S 7 9 4 5 1011.2 1011.1 0.0
17/10:30am 28.9 34.1 25.1 80 2.7 SSW 7 13 4 7 1011.3 1011.2 0.0
17/10:00am 28.4 32.8 25.0 82 2.4 SSW 11 20 6 11 1011.2 1011.1 0.0
17/09:30am 28.8 34.1 25.8 84 2.1 SW 9 17 5 9 1011.1 1011.0 0.0
17/09:00am 27.8 33.5 25.6 88 1.6 S 6 11 3 6 1011.1 1011.0 1.2

Other Formats:

Comma delimited format used in spreadsheet applications
http://www.bom.gov.au/fwo/IDD60801/IDD60801.94110.axf

JavaScript Object Notation format (JSON) in row-major order
http://www.bom.gov.au/fwo/IDD60801/IDD60801.94110.json